createdAt,value
2016-03-04T00:00:24.807Z,0
2016-03-04T00:01:24.966Z,0
2016-03-04T00:02:24.969Z,0
2016-03-04T00:03:24.956Z,0
2016-03-04T00:04:24.974Z,0
2016-03-04T00:05:24.960Z,0
2016-03-04T00:06:24.963Z,0
2016-03-04T00:07:24.966Z,0
2016-03-04T00:08:24.954Z,0
2016-03-04T00:09:24.957Z,0
2016-03-04T00:10:24.960Z,0
2016-03-04T00:11:24.977Z,0
2016-03-04T00:12:24.949Z,0
2016-03-04T00:13:24.951Z,0
2016-03-04T00:14:24.954Z,0
2016-03-04T00:15:24.957Z,0
2016-03-04T00:16:24.959Z,0
2016-03-04T00:17:24.978Z,0
2016-03-04T00:18:24.949Z,0
2016-03-04T00:19:24.951Z,0
2016-03-04T00:20:24.954Z,0
2016-03-04T00:21:24.942Z,0
2016-03-04T00:22:24.975Z,0
2016-03-04T00:23:24.947Z,0
2016-03-04T00:24:24.981Z,0
2016-03-04T00:25:24.922Z,0
2016-03-04T00:26:24.956Z,0
2016-03-04T00:27:24.941Z,0
2016-03-04T00:28:24.945Z,0
2016-03-04T00:29:24.963Z,0
2016-03-04T00:30:24.778Z,0
2016-03-04T00:31:24.832Z,0
2016-03-04T00:32:24.949Z,0
2016-03-04T00:33:24.952Z,0
2016-03-04T00:34:24.955Z,0
2016-03-04T00:35:24.958Z,0
2016-03-04T00:36:24.960Z,0
2016-03-04T00:37:24.931Z,0
2016-03-04T00:38:24.934Z,0
2016-03-04T00:39:24.938Z,0
2016-03-04T00:40:24.784Z,0
2016-03-04T00:41:24.943Z,0
2016-03-04T00:42:24.961Z,0
2016-03-04T00:43:24.932Z,0
2016-03-04T00:44:24.950Z,0
2016-03-04T00:45:24.937Z,0
2016-03-04T00:46:24.940Z,0
2016-03-04T00:47:24.959Z,0
2016-03-04T00:48:24.931Z,0
2016-03-04T00:49:24.948Z,0
2016-03-04T00:50:24.951Z,0
2016-03-04T00:51:24.938Z,0
2016-03-04T00:52:24.942Z,0
2016-03-04T00:53:24.928Z,0
2016-03-04T00:54:24.931Z,0
2016-03-04T00:55:24.934Z,0
2016-03-04T00:56:24.937Z,0
2016-03-04T00:57:24.939Z,0
2016-03-04T00:58:24.958Z,0
2016-03-04T00:59:24.945Z,0
2016-03-04T01:00:24.933Z,0
2016-03-04T01:01:24.919Z,0
2016-03-04T01:02:24.906Z,0
2016-03-04T01:03:24.941Z,0
2016-03-04T01:04:24.943Z,0
2016-03-04T01:05:24.947Z,0
2016-03-04T01:06:24.933Z,0
2016-03-04T01:07:24.920Z,0
2016-03-04T01:08:24.766Z,0
2016-03-04T01:09:24.925Z,0
2016-03-04T01:10:24.944Z,0
2016-03-04T01:11:24.931Z,0
2016-03-04T01:12:24.933Z,0
2016-03-04T01:13:24.921Z,0
2016-03-04T01:14:24.924Z,0
2016-03-04T01:15:24.926Z,0
2016-03-04T01:16:24.929Z,0
2016-03-04T01:17:24.916Z,0
2016-03-04T01:18:24.949Z,0
2016-03-04T01:19:24.920Z,0
2016-03-04T01:20:24.924Z,0
2016-03-04T01:21:24.926Z,0
2016-03-04T01:22:24.929Z,0
2016-03-04T01:23:24.931Z,0
2016-03-04T01:24:24.934Z,0
2016-03-04T01:25:24.953Z,0
2016-03-04T01:26:24.924Z,0
2016-03-04T01:27:24.926Z,0
2016-03-04T01:28:24.914Z,0
2016-03-04T01:29:24.932Z,0
2016-03-04T01:30:24.919Z,0
2016-03-04T01:31:24.922Z,0
2016-03-04T01:32:24.925Z,0
2016-03-04T01:33:24.912Z,0
2016-03-04T01:34:24.914Z,0
2016-03-04T01:35:24.917Z,0
2016-03-04T01:36:24.919Z,0
2016-03-04T01:37:24.922Z,0
2016-03-04T01:38:24.924Z,0
2016-03-04T01:39:24.928Z,0
2016-03-04T01:40:24.915Z,0
2016-03-04T01:41:24.918Z,0
2016-03-04T01:42:24.920Z,0
2016-03-04T01:43:31.251Z,0
2016-03-04T01:44:25.082Z,0
2016-03-04T01:45:25.100Z,0
2016-03-04T01:46:25.088Z,0
2016-03-04T01:47:25.074Z,0
2016-03-04T01:48:24.905Z,0
2016-03-04T01:49:24.908Z,0
2016-03-04T01:50:24.926Z,0
2016-03-04T01:51:24.928Z,0
2016-03-04T01:52:24.916Z,0
2016-03-04T01:53:24.904Z,0
2016-03-04T01:54:24.921Z,0
2016-03-04T01:55:24.908Z,0
2016-03-04T01:56:24.926Z,0
2016-03-04T01:57:24.914Z,0
2016-03-04T01:58:24.900Z,0
2016-03-04T01:59:24.903Z,0
2016-03-04T02:00:24.906Z,0
2016-03-04T02:01:24.909Z,0
2016-03-04T02:02:24.927Z,0
2016-03-04T02:03:24.899Z,0
2016-03-04T02:04:24.901Z,0
2016-03-04T02:05:24.889Z,0
2016-03-04T02:06:24.906Z,0
2016-03-04T02:07:24.924Z,0
2016-03-04T02:08:24.911Z,0
2016-03-04T02:09:24.899Z,0
2016-03-04T02:10:24.901Z,0
2016-03-04T02:11:24.904Z,0
2016-03-04T02:12:24.907Z,0
2016-03-04T02:13:24.909Z,0
2016-03-04T02:14:24.896Z,0
2016-03-04T02:15:24.915Z,0
2016-03-04T02:16:24.902Z,0
2016-03-04T02:17:24.904Z,0
2016-03-04T02:18:24.892Z,0
2016-03-04T02:19:24.910Z,0
2016-03-04T02:20:24.912Z,0
2016-03-04T02:21:24.900Z,0
2016-03-04T02:22:24.902Z,0
2016-03-04T02:23:24.889Z,0
2016-03-04T02:24:24.892Z,0
2016-03-04T02:25:24.895Z,0
2016-03-04T02:26:24.897Z,0
2016-03-04T02:27:24.905Z,0
2016-03-04T02:28:24.907Z,0
2016-03-04T02:29:24.910Z,0
2016-03-04T02:30:24.882Z,0
2016-03-04T02:31:24.916Z,0
2016-03-04T02:32:24.887Z,0
2016-03-04T02:33:24.890Z,0
2016-03-04T02:34:24.893Z,0
2016-03-04T02:35:24.896Z,0
2016-03-04T02:36:24.898Z,0
2016-03-04T02:37:24.901Z,0
2016-03-04T02:38:24.918Z,0
2016-03-04T02:39:24.890Z,0
2016-03-04T02:40:24.909Z,0
2016-03-04T02:41:24.879Z,0
2016-03-04T02:42:24.882Z,0
2016-03-04T02:43:24.885Z,0
2016-03-04T02:44:24.887Z,0
2016-03-04T02:45:24.875Z,0
2016-03-04T02:46:24.878Z,0
2016-03-04T02:47:24.723Z,0
2016-03-04T02:48:24.883Z,0
2016-03-04T02:49:24.886Z,0
2016-03-04T02:50:24.889Z,0
2016-03-04T02:51:24.875Z,0
2016-03-04T02:52:24.878Z,0
2016-03-04T02:53:24.880Z,0
2016-03-04T02:54:24.899Z,0
2016-03-04T02:55:24.886Z,0
2016-03-04T02:56:24.889Z,0
2016-03-04T02:57:24.876Z,0
2016-03-04T02:58:24.894Z,0
2016-03-04T02:59:24.913Z,0
2016-03-04T03:00:24.884Z,0
2016-03-04T03:01:24.887Z,0
2016-03-04T03:02:24.889Z,0
2016-03-04T03:03:24.874Z,0
2016-03-04T03:04:24.861Z,0
2016-03-04T03:05:24.879Z,0
2016-03-04T03:06:24.882Z,0
2016-03-04T03:07:24.899Z,0
2016-03-04T03:08:24.871Z,0
2016-03-04T03:09:24.874Z,0
2016-03-04T03:10:24.877Z,0
2016-03-04T03:11:24.880Z,0
2016-03-04T03:12:24.882Z,0
2016-03-04T03:13:24.869Z,0
2016-03-04T03:14:24.934Z,0
2016-03-04T03:15:24.876Z,0
2016-03-04T03:16:24.862Z,0
2016-03-04T03:17:24.864Z,0
2016-03-04T03:18:24.867Z,0
2016-03-04T03:19:24.886Z,0
2016-03-04T03:20:24.872Z,0
2016-03-04T03:21:24.859Z,0
2016-03-04T03:22:24.862Z,0
2016-03-04T03:23:24.881Z,0
2016-03-04T03:24:24.867Z,0
2016-03-04T03:25:24.855Z,0
2016-03-04T03:26:24.857Z,0
2016-03-04T03:27:24.860Z,0
2016-03-04T03:28:24.864Z,0
2016-03-04T03:29:24.928Z,0
2016-03-04T03:30:24.712Z,0
2016-03-04T03:31:24.871Z,0
2016-03-04T03:32:24.858Z,0
2016-03-04T03:33:24.860Z,0
2016-03-04T03:34:24.863Z,0
2016-03-04T03:35:24.866Z,0
2016-03-04T03:36:24.869Z,0
2016-03-04T03:37:24.855Z,0
2016-03-04T03:38:24.921Z,0
2016-03-04T03:39:24.860Z,0
2016-03-04T03:40:24.879Z,0
2016-03-04T03:41:24.852Z,0
2016-03-04T03:42:24.885Z,0
2016-03-04T03:43:24.857Z,0
2016-03-04T03:44:24.859Z,0
2016-03-04T03:45:24.877Z,0
2016-03-04T03:46:24.864Z,0
2016-03-04T03:47:24.851Z,0
2016-03-04T03:48:24.854Z,0
2016-03-04T03:49:24.873Z,0
2016-03-04T03:50:24.845Z,0
2016-03-04T03:51:24.862Z,0
2016-03-04T03:52:24.849Z,0
2016-03-04T03:53:24.883Z,0
2016-03-04T03:54:24.840Z,0
2016-03-04T03:55:24.841Z,0
2016-03-04T03:56:24.844Z,0
2016-03-04T03:57:24.847Z,0
2016-03-04T03:58:24.850Z,0
2016-03-04T03:59:24.852Z,0
2016-03-04T04:00:24.839Z,0
2016-03-04T04:01:24.842Z,0
2016-03-04T04:02:24.829Z,0
2016-03-04T04:03:24.832Z,0
2016-03-04T04:04:24.835Z,0
2016-03-04T04:05:24.837Z,0
2016-03-04T04:06:24.840Z,0
2016-03-04T04:07:24.827Z,0
2016-03-04T04:08:24.877Z,0
2016-03-04T04:09:24.833Z,0
2016-03-04T04:10:24.835Z,0
2016-03-04T04:11:24.822Z,0
2016-03-04T04:12:24.824Z,0
2016-03-04T04:13:24.843Z,0
2016-03-04T04:14:24.829Z,0
2016-03-04T04:15:24.818Z,0
2016-03-04T04:16:24.836Z,0
2016-03-04T04:17:24.823Z,0
2016-03-04T04:18:24.826Z,0
2016-03-04T04:19:24.828Z,0
2016-03-04T04:20:24.862Z,0
2016-03-04T04:21:24.833Z,0
2016-03-04T04:22:24.821Z,0
2016-03-04T04:23:24.823Z,0
2016-03-04T04:24:24.826Z,0
2016-03-04T04:25:24.844Z,0
2016-03-04T04:26:24.816Z,0
2016-03-04T04:27:24.818Z,0
2016-03-04T04:28:24.806Z,0
2016-03-04T04:29:24.825Z,0
2016-03-04T04:30:24.811Z,0
2016-03-04T04:31:24.813Z,0
2016-03-04T04:32:24.816Z,0
2016-03-04T04:33:24.803Z,0
2016-03-04T04:34:24.821Z,0
2016-03-04T04:35:24.793Z,0
2016-03-04T04:36:24.811Z,0
2016-03-04T04:37:24.830Z,0
2016-03-04T04:38:24.801Z,0
2016-03-04T04:39:24.804Z,0
2016-03-04T04:40:24.806Z,0
2016-03-04T04:41:24.809Z,0
2016-03-04T04:42:24.796Z,0
2016-03-04T04:43:24.798Z,0
2016-03-04T04:44:24.786Z,0
2016-03-04T04:45:24.804Z,0
2016-03-04T04:46:24.791Z,0
2016-03-04T04:47:24.793Z,0
2016-03-04T04:48:24.782Z,0
2016-03-04T04:49:24.831Z,0
2016-03-04T04:50:24.787Z,0
2016-03-04T04:51:24.804Z,0
2016-03-04T04:52:24.792Z,0
2016-03-04T04:53:24.810Z,0
2016-03-04T04:54:24.510Z,0
2016-03-04T04:55:24.626Z,0
2016-03-04T04:56:32.930Z,0
2016-03-04T04:57:24.805Z,0
2016-03-04T04:58:24.776Z,0
2016-03-04T04:59:24.794Z,0
2016-03-04T05:00:24.781Z,0
2016-03-04T05:01:24.799Z,0
2016-03-04T05:02:24.786Z,0
2016-03-04T05:03:24.773Z,0
2016-03-04T05:04:24.777Z,0
2016-03-04T05:05:24.779Z,0
2016-03-04T05:06:24.782Z,0
2016-03-04T05:07:24.784Z,0
2016-03-04T05:08:24.756Z,0
2016-03-04T05:09:24.759Z,0
2016-03-04T05:10:24.762Z,0
2016-03-04T05:11:24.764Z,0
2016-03-04T05:12:24.767Z,0
2016-03-04T05:13:24.753Z,0
2016-03-04T05:14:24.772Z,0
2016-03-04T05:15:24.774Z,0
2016-03-04T05:16:24.762Z,0
2016-03-04T05:17:24.781Z,0
2016-03-04T05:18:24.767Z,0
2016-03-04T05:19:24.755Z,0
2016-03-04T05:20:24.772Z,0
2016-03-04T05:21:24.744Z,0
2016-03-04T05:22:24.763Z,0
2016-03-04T05:23:24.750Z,0
2016-03-04T05:24:24.768Z,0
2016-03-04T05:25:24.739Z,0
2016-03-04T05:26:24.773Z,0
2016-03-04T05:27:24.744Z,0
2016-03-04T05:28:24.762Z,0
2016-03-04T05:29:24.750Z,4
2016-03-04T05:30:24.769Z,4
2016-03-04T05:31:24.740Z,0
2016-03-04T05:32:24.758Z,4
2016-03-04T05:33:24.745Z,4
2016-03-04T05:34:24.732Z,4
2016-03-04T05:35:24.735Z,8
2016-03-04T05:36:24.737Z,8
2016-03-04T05:37:24.740Z,8
2016-03-04T05:38:24.727Z,12
2016-03-04T05:39:24.745Z,12
2016-03-04T05:40:24.561Z,16
2016-03-04T05:41:24.750Z,16
2016-03-04T05:42:24.723Z,20
2016-03-04T05:43:24.726Z,24
2016-03-04T05:44:24.728Z,32
2016-03-04T05:45:24.715Z,36
2016-03-04T05:46:24.733Z,44
2016-03-04T05:47:24.720Z,56
2016-03-04T05:48:24.738Z,72
2016-03-04T05:49:24.710Z,84
2016-03-04T05:50:24.728Z,100
2016-03-04T05:51:24.716Z,104
2016-03-04T05:52:24.702Z,112
2016-03-04T05:53:24.705Z,120
2016-03-04T05:54:24.707Z,140
2016-03-04T05:55:24.727Z,164
2016-03-04T05:56:24.713Z,188
2016-03-04T05:57:24.716Z,212
2016-03-04T05:58:24.703Z,236
2016-03-04T05:59:24.705Z,256
2016-03-04T06:00:24.708Z,276
2016-03-04T06:01:24.695Z,308
2016-03-04T06:02:24.698Z,348
2016-03-04T06:03:24.716Z,392
2016-03-04T06:04:24.688Z,428
2016-03-04T06:05:24.722Z,472
2016-03-04T06:06:24.693Z,520
2016-03-04T06:07:24.680Z,576
2016-03-04T06:08:24.695Z,624
2016-03-04T06:09:24.670Z,676
2016-03-04T06:10:24.676Z,736
2016-03-04T06:11:24.666Z,796
2016-03-04T06:12:24.656Z,880
2016-03-04T06:13:24.616Z,960
2016-03-04T06:14:24.645Z,1004
2016-03-04T06:15:24.627Z,1044
2016-03-04T06:16:24.595Z,1192
2016-03-04T06:17:24.593Z,1436
2016-03-04T06:18:24.592Z,1612
2016-03-04T06:19:24.609Z,1756
2016-03-04T06:20:24.579Z,1936
2016-03-04T06:21:24.595Z,2052
2016-03-04T06:22:24.565Z,2192
2016-03-04T06:23:24.566Z,2196
2016-03-04T06:24:24.584Z,2204
2016-03-04T06:25:24.570Z,2264
2016-03-04T06:26:24.588Z,2352
2016-03-04T06:27:24.574Z,2364
2016-03-04T06:28:24.576Z,2212
2016-03-04T06:29:24.563Z,2240
2016-03-04T06:30:24.566Z,2180
2016-03-04T06:31:24.569Z,2360
2016-03-04T06:32:24.571Z,2592
2016-03-04T06:33:24.559Z,2860
2016-03-04T06:34:24.576Z,3212
2016-03-04T06:35:24.564Z,3560
2016-03-04T06:36:24.551Z,3768
2016-03-04T06:37:24.554Z,3920
2016-03-04T06:38:24.556Z,3936
2016-03-04T06:39:24.559Z,3852
2016-03-04T06:40:24.546Z,3928
2016-03-04T06:41:24.564Z,3900
2016-03-04T06:42:24.551Z,3676
2016-03-04T06:43:24.570Z,3836
2016-03-04T06:44:24.557Z,4364
2016-03-04T06:45:24.575Z,4680
2016-03-04T06:46:24.547Z,4820
2016-03-04T06:47:24.549Z,4916
2016-03-04T06:48:24.567Z,4888
2016-03-04T06:49:24.585Z,4788
2016-03-04T06:50:24.558Z,5100
2016-03-04T06:51:24.576Z,5552
2016-03-04T06:52:24.563Z,5528
2016-03-04T06:53:24.566Z,5724
2016-03-04T06:54:24.599Z,6192
2016-03-04T06:55:24.586Z,6120
2016-03-04T06:56:24.574Z,6320
2016-03-04T06:57:24.576Z,6416
2016-03-04T06:58:24.594Z,6912
2016-03-04T06:59:24.566Z,7076
2016-03-04T07:00:24.584Z,7520
2016-03-04T07:01:24.618Z,7608
2016-03-04T07:02:24.573Z,8052
2016-03-04T07:03:24.562Z,8400
2016-03-04T07:04:24.564Z,8396
2016-03-04T07:05:24.567Z,7940
2016-03-04T07:06:26.351Z,8248
2016-03-04T07:07:25.869Z,8616
2016-03-04T07:08:26.262Z,6900
2016-03-04T07:09:26.342Z,5000
2016-03-04T07:10:26.345Z,4668
2016-03-04T07:11:26.645Z,4568
2016-03-04T07:12:26.804Z,4572
2016-03-04T07:13:26.760Z,4604
2016-03-04T07:14:26.779Z,4628
2016-03-04T07:15:26.781Z,4692
2016-03-04T07:16:26.783Z,4732
2016-03-04T07:17:26.770Z,4788
2016-03-04T07:18:26.586Z,4836
2016-03-04T07:19:26.572Z,4884
2016-03-04T07:20:26.622Z,4928
2016-03-04T07:21:24.656Z,4656
2016-03-04T07:22:26.394Z,5008
2016-03-04T07:23:26.536Z,5144
2016-03-04T07:24:26.289Z,5092
2016-03-04T07:25:25.964Z,5016
2016-03-04T07:26:26.279Z,4864
2016-03-04T07:27:26.360Z,4796
2016-03-04T07:28:26.299Z,4780
2016-03-04T07:29:26.302Z,4724
2016-03-04T07:30:26.290Z,4732
2016-03-04T07:31:26.401Z,4792
2016-03-04T07:32:26.280Z,4808
2016-03-04T07:33:26.438Z,4816
2016-03-04T07:34:26.441Z,4840
2016-03-04T07:35:26.648Z,4868
2016-03-04T07:36:26.650Z,4884
2016-03-04T07:37:26.746Z,4916
2016-03-04T07:38:26.748Z,4960
2016-03-04T07:39:26.752Z,5004
2016-03-04T07:40:26.598Z,5064
2016-03-04T07:41:26.851Z,5040
2016-03-04T07:42:24.650Z,4968
2016-03-04T07:43:24.653Z,4948
2016-03-04T07:44:24.656Z,4912
2016-03-04T07:45:24.720Z,4904
2016-03-04T07:46:24.662Z,4888
2016-03-04T07:47:24.664Z,4844
2016-03-04T07:48:24.682Z,4844
2016-03-04T07:49:24.669Z,4808
2016-03-04T07:50:24.672Z,4776
2016-03-04T07:51:24.674Z,4784
2016-03-04T07:52:24.693Z,4812
2016-03-04T07:53:24.695Z,4824
2016-03-04T07:54:24.683Z,4824
2016-03-04T07:55:24.685Z,4884
2016-03-04T07:56:24.688Z,4844
2016-03-04T07:57:24.691Z,4812
2016-03-04T07:58:24.709Z,4880
2016-03-04T07:59:24.696Z,4916
2016-03-04T08:00:24.746Z,4800
2016-03-04T08:01:24.718Z,4712
2016-03-04T08:02:24.766Z,4724
2016-03-04T08:03:24.722Z,4768
2016-03-04T08:04:24.741Z,4780
2016-03-04T08:05:24.743Z,4796
2016-03-04T08:06:24.731Z,4856
2016-03-04T08:07:24.765Z,4956
2016-03-04T08:08:24.736Z,4992
2016-03-04T08:09:24.754Z,4956
2016-03-04T08:10:24.741Z,4904
2016-03-04T08:11:24.776Z,4904
2016-03-04T08:12:24.762Z,4904
2016-03-04T08:13:24.764Z,4908
2016-03-04T08:14:24.767Z,4952
2016-03-04T08:15:24.692Z,4940
2016-03-04T08:16:24.773Z,4944
2016-03-04T08:17:24.792Z,5100
2016-03-04T08:18:24.779Z,5228
2016-03-04T08:19:24.797Z,5336
2016-03-04T08:20:24.861Z,5432
2016-03-04T08:21:24.817Z,5520
2016-03-04T08:22:24.805Z,5572
2016-03-04T08:23:24.823Z,5664
2016-03-04T08:24:24.810Z,5788
2016-03-04T08:25:24.813Z,5928
2016-03-04T08:26:24.815Z,6072
2016-03-04T08:27:24.818Z,6184
2016-03-04T08:28:24.836Z,6300
2016-03-04T08:29:24.824Z,6356
2016-03-04T08:30:24.826Z,6408
2016-03-04T08:31:24.829Z,6532
2016-03-04T08:32:24.894Z,6592
2016-03-04T08:33:24.849Z,6608
2016-03-04T08:34:24.852Z,6580
2016-03-04T08:35:24.871Z,6528
2016-03-04T08:36:24.857Z,6400
2016-03-04T08:37:24.892Z,6288
2016-03-04T08:38:24.879Z,6208
2016-03-04T08:39:24.866Z,6156
2016-03-04T08:40:24.900Z,6140
2016-03-04T08:41:24.887Z,6132
2016-03-04T08:42:24.906Z,6132
2016-03-04T08:43:24.892Z,6120
2016-03-04T08:44:24.895Z,6124
2016-03-04T08:45:24.898Z,6148
2016-03-04T08:46:24.884Z,6152
2016-03-04T08:47:24.919Z,6160
2016-03-04T08:48:24.906Z,6144
2016-03-04T08:49:24.940Z,6108
2016-03-04T08:50:24.911Z,6056
2016-03-04T08:51:24.930Z,6024
2016-03-04T08:52:24.933Z,6008
2016-03-04T08:53:24.935Z,6012
2016-03-04T08:54:24.968Z,6052
2016-03-04T08:55:24.941Z,6096
2016-03-04T08:56:24.958Z,6152
2016-03-04T08:57:24.946Z,6148
2016-03-04T08:58:24.808Z,6068
2016-03-04T08:59:24.951Z,6004
2016-03-04T09:00:24.969Z,5948
2016-03-04T09:01:24.972Z,5924
2016-03-04T09:02:25.037Z,5932
2016-03-04T09:03:24.977Z,5908
2016-03-04T09:04:24.979Z,5896
2016-03-04T09:05:24.984Z,5904
2016-03-04T09:06:24.986Z,5908
2016-03-04T09:07:25.020Z,5892
2016-03-04T09:08:25.039Z,5888
2016-03-04T09:09:24.994Z,5876
2016-03-04T09:10:25.013Z,5868
2016-03-04T09:11:25.031Z,5864
2016-03-04T09:12:25.018Z,5860
2016-03-04T09:13:25.037Z,5860
2016-03-04T09:14:25.008Z,5876
2016-03-04T09:15:25.042Z,5884
2016-03-04T09:16:25.029Z,5896
2016-03-04T09:17:25.032Z,5920
2016-03-04T09:18:25.034Z,5956
2016-03-04T09:19:25.037Z,6012
2016-03-04T09:20:25.054Z,6068
2016-03-04T09:21:25.043Z,6120
2016-03-04T09:22:25.045Z,6156
2016-03-04T09:23:25.048Z,6200
2016-03-04T09:24:25.051Z,6240
2016-03-04T09:25:25.068Z,6288
2016-03-04T09:26:25.056Z,6348
2016-03-04T09:27:25.090Z,6392
2016-03-04T09:28:25.061Z,6440
2016-03-04T09:29:25.079Z,6488
2016-03-04T09:30:24.926Z,6536
2016-03-04T09:31:25.084Z,6552
2016-03-04T09:32:25.073Z,6568
2016-03-04T09:33:25.090Z,6592
2016-03-04T09:34:25.092Z,6640
2016-03-04T09:35:25.095Z,6680
2016-03-04T09:36:25.098Z,6712
2016-03-04T09:37:25.133Z,6720
2016-03-04T09:38:25.103Z,6708
2016-03-04T09:39:25.106Z,6692
2016-03-04T09:40:25.125Z,6672
2016-03-04T09:41:25.112Z,6660
2016-03-04T09:42:25.130Z,6668
2016-03-04T09:43:25.117Z,6696
2016-03-04T09:44:25.119Z,6716
2016-03-04T09:45:25.138Z,6720
2016-03-04T09:46:25.125Z,6764
2016-03-04T09:47:25.127Z,6828
2016-03-04T09:48:25.177Z,6872
2016-03-04T09:49:25.149Z,6876
2016-03-04T09:50:25.136Z,6828
2016-03-04T09:51:25.186Z,6748
2016-03-04T09:52:25.157Z,6640
2016-03-04T09:53:25.159Z,6540
2016-03-04T09:54:25.163Z,6452
2016-03-04T09:55:25.165Z,6384
2016-03-04T09:56:25.183Z,6336
2016-03-04T09:57:25.171Z,6312
2016-03-04T09:58:25.189Z,6320
2016-03-04T09:59:25.192Z,6344
2016-03-04T10:00:25.538Z,6372
2016-03-04T10:01:25.181Z,6404
2016-03-04T10:02:25.200Z,6420
2016-03-04T10:03:25.203Z,6424
2016-03-04T10:04:25.189Z,6404
2016-03-04T10:05:25.222Z,6364
2016-03-04T10:06:25.211Z,6312
2016-03-04T10:07:25.213Z,6240
2016-03-04T10:08:25.200Z,6192
2016-03-04T10:09:25.234Z,6164
2016-03-04T10:10:25.221Z,6192
2016-03-04T10:11:25.239Z,6236
2016-03-04T10:12:25.242Z,6284
2016-03-04T10:13:25.229Z,6308
2016-03-04T10:14:25.232Z,6328
2016-03-04T10:15:25.250Z,6336
2016-03-04T10:16:25.252Z,6336
2016-03-04T10:17:25.241Z,6348
2016-03-04T10:18:25.243Z,6380
2016-03-04T10:19:25.260Z,6444
2016-03-04T10:20:25.686Z,6524
2016-03-04T10:21:25.266Z,6592
2016-03-04T10:22:25.253Z,6632
2016-03-04T10:23:25.257Z,6648
2016-03-04T10:24:25.259Z,6632
2016-03-04T10:25:25.293Z,6596
2016-03-04T10:26:25.279Z,6556
2016-03-04T10:27:25.267Z,6520
2016-03-04T10:28:25.270Z,6500
2016-03-04T10:29:25.287Z,6504
2016-03-04T10:30:25.275Z,6540
2016-03-04T10:31:25.120Z,6592
2016-03-04T10:32:25.281Z,6652
2016-03-04T10:33:25.283Z,6696
2016-03-04T10:34:25.286Z,6708
2016-03-04T10:35:25.304Z,6700
2016-03-04T10:36:25.322Z,6692
2016-03-04T10:37:25.309Z,6712
2016-03-04T10:38:25.312Z,6736
2016-03-04T10:39:25.299Z,6752
2016-03-04T10:40:25.317Z,6748
2016-03-04T10:41:25.305Z,6744
2016-03-04T10:42:25.322Z,6744
2016-03-04T10:43:25.310Z,6760
2016-03-04T10:44:25.359Z,6788
2016-03-04T10:45:25.316Z,6828
2016-03-04T10:46:25.318Z,6868
2016-03-04T10:47:25.335Z,6892
2016-03-04T10:48:25.339Z,6896
2016-03-04T10:49:25.341Z,6888
2016-03-04T10:50:25.344Z,6864
2016-03-04T10:51:25.332Z,6816
2016-03-04T10:52:25.335Z,6748
2016-03-04T10:53:25.352Z,6668
2016-03-04T10:54:25.371Z,6592
2016-03-04T10:55:25.342Z,6532
2016-03-04T10:56:25.360Z,6492
2016-03-04T10:57:25.363Z,6464
2016-03-04T10:58:25.366Z,6444
2016-03-04T10:59:25.353Z,6420
2016-03-04T11:00:25.355Z,6420
2016-03-04T11:01:25.374Z,6428
2016-03-04T11:02:25.376Z,6424
2016-03-04T11:03:25.363Z,6420
2016-03-04T11:04:25.367Z,6412
2016-03-04T11:05:25.385Z,6396
2016-03-04T11:06:25.372Z,6372
2016-03-04T11:07:25.389Z,6344
2016-03-04T11:08:25.393Z,6324
2016-03-04T11:09:25.411Z,6316
2016-03-04T11:10:25.429Z,6304
2016-03-04T11:11:25.401Z,6276
2016-03-04T11:12:25.435Z,6236
2016-03-04T11:13:25.391Z,6184
2016-03-04T11:14:25.425Z,6128
2016-03-04T11:15:25.396Z,6072
2016-03-04T11:16:25.399Z,6040
2016-03-04T11:17:25.416Z,6048
2016-03-04T11:18:25.404Z,6084
2016-03-04T11:19:25.438Z,6128
2016-03-04T11:20:25.424Z,6172
2016-03-04T11:21:25.444Z,6208
2016-03-04T11:22:25.430Z,6240
2016-03-04T11:23:25.432Z,6256
2016-03-04T11:24:25.452Z,6268
2016-03-04T11:25:25.438Z,6260
2016-03-04T11:26:25.457Z,6252
2016-03-04T11:27:25.459Z,6244
2016-03-04T11:28:25.463Z,6260
2016-03-04T11:29:25.465Z,6296
2016-03-04T11:30:25.451Z,6344
2016-03-04T11:31:25.454Z,6392
2016-03-04T11:32:25.473Z,6428
2016-03-04T11:33:25.459Z,6460
2016-03-04T11:34:25.462Z,6476
2016-03-04T11:35:25.340Z,6500
2016-03-04T11:36:25.468Z,6500
2016-03-04T11:37:25.470Z,6484
2016-03-04T11:38:25.473Z,6440
2016-03-04T11:39:25.476Z,6396
2016-03-04T11:40:25.494Z,6352
2016-03-04T11:41:25.481Z,6332
2016-03-04T11:42:25.500Z,6336
2016-03-04T11:43:25.503Z,6340
2016-03-04T11:44:25.505Z,6328
2016-03-04T11:45:25.491Z,6312
2016-03-04T11:46:25.527Z,6280
2016-03-04T11:47:25.497Z,6236
2016-03-04T11:48:25.532Z,6164
2016-03-04T11:49:25.519Z,6060
2016-03-04T11:50:25.522Z,5924
2016-03-04T11:51:25.524Z,5780
2016-03-04T11:52:25.526Z,5664
2016-03-04T11:53:25.530Z,5608
2016-03-04T11:54:25.532Z,5568
2016-03-04T11:55:25.534Z,5536
2016-03-04T11:56:25.537Z,5512
2016-03-04T11:57:25.540Z,5508
2016-03-04T11:58:25.543Z,5532
2016-03-04T11:59:25.545Z,5560
2016-03-04T12:00:25.595Z,5576
2016-03-04T12:01:25.551Z,5584
2016-03-04T12:02:25.553Z,5612
2016-03-04T12:03:25.556Z,5664
2016-03-04T12:04:25.575Z,5732
2016-03-04T12:05:25.562Z,5808
2016-03-04T12:06:25.580Z,5888
2016-03-04T12:07:25.567Z,5944
2016-03-04T12:08:25.569Z,5996
2016-03-04T12:09:25.572Z,6040
2016-03-04T12:10:25.575Z,6076
2016-03-04T12:11:25.594Z,6080
2016-03-04T12:12:25.596Z,6100
2016-03-04T12:13:25.583Z,6152
2016-03-04T12:14:25.602Z,6224
2016-03-04T12:15:25.572Z,6284
2016-03-04T12:16:25.638Z,6336
2016-03-04T12:17:25.610Z,6360
2016-03-04T12:18:25.597Z,6380
2016-03-04T12:19:25.599Z,6360
2016-03-04T12:20:25.602Z,6328
2016-03-04T12:21:25.605Z,6284
2016-03-04T12:22:25.607Z,6268
2016-03-04T12:23:25.626Z,6256
2016-03-04T12:24:25.596Z,6248
2016-03-04T12:25:25.616Z,6224
2016-03-04T12:26:25.634Z,6184
2016-03-04T12:27:25.620Z,6104
2016-03-04T12:28:25.624Z,6048
2016-03-04T12:29:25.626Z,6036
2016-03-04T12:30:25.629Z,6032
2016-03-04T12:31:25.647Z,6020
2016-03-04T12:32:25.635Z,5956
2016-03-04T12:33:25.637Z,5848
2016-03-04T12:34:25.639Z,5736
2016-03-04T12:35:25.643Z,5648
2016-03-04T12:36:25.660Z,5584
2016-03-04T12:37:25.648Z,5552
2016-03-04T12:38:25.650Z,5540
2016-03-04T12:39:25.653Z,5500
2016-03-04T12:40:25.656Z,5412
2016-03-04T12:41:25.674Z,5340
2016-03-04T12:42:25.661Z,5300
2016-03-04T12:43:25.663Z,5276
2016-03-04T12:44:25.667Z,5256
2016-03-04T12:45:25.685Z,5216
2016-03-04T12:46:25.703Z,5136
2016-03-04T12:47:25.674Z,5076
2016-03-04T12:48:25.677Z,5028
2016-03-04T12:49:25.680Z,4944
2016-03-04T12:50:25.698Z,4868
2016-03-04T12:51:25.685Z,4800
2016-03-04T12:52:25.688Z,4756
2016-03-04T12:53:25.691Z,4744
2016-03-04T12:54:25.693Z,4768
2016-03-04T12:55:25.696Z,4780
2016-03-04T12:56:25.699Z,4764
2016-03-04T12:57:25.701Z,4720
2016-03-04T12:58:25.704Z,4628
2016-03-04T12:59:25.707Z,4560
2016-03-04T13:00:25.726Z,4480
2016-03-04T13:01:25.728Z,4412
2016-03-04T13:02:25.715Z,4388
2016-03-04T13:03:25.748Z,4468
2016-03-04T13:04:25.720Z,4532
2016-03-04T13:05:25.723Z,4468
2016-03-04T13:06:25.742Z,4340
2016-03-04T13:07:25.728Z,4276
2016-03-04T13:08:25.731Z,4248
2016-03-04T13:09:25.734Z,4204
2016-03-04T13:10:25.736Z,4184
2016-03-04T13:11:25.739Z,4164
2016-03-04T13:12:25.758Z,4112
2016-03-04T13:13:25.745Z,4112
2016-03-04T13:14:25.747Z,4188
2016-03-04T13:15:25.749Z,4320
2016-03-04T13:16:25.799Z,4476
2016-03-04T13:17:25.771Z,4632
2016-03-04T13:18:25.836Z,4732
2016-03-04T13:19:25.776Z,4776
2016-03-04T13:20:25.780Z,4724
2016-03-04T13:21:25.766Z,4668
2016-03-04T13:22:25.769Z,4612
2016-03-04T13:23:25.787Z,4572
2016-03-04T13:24:25.774Z,4544
2016-03-04T13:25:25.793Z,4532
2016-03-04T13:26:25.780Z,4484
2016-03-04T13:27:25.798Z,4316
2016-03-04T13:28:25.784Z,4064
2016-03-04T13:29:25.819Z,3796
2016-03-04T13:30:25.806Z,3532
2016-03-04T13:31:25.808Z,3340
2016-03-04T13:32:25.826Z,3284
2016-03-04T13:33:25.815Z,3324
2016-03-04T13:34:25.863Z,3380
2016-03-04T13:35:25.819Z,3384
2016-03-04T13:36:25.854Z,3344
2016-03-04T13:37:25.825Z,3124
2016-03-04T13:38:25.828Z,2840
2016-03-04T13:39:25.845Z,2764
2016-03-04T13:40:25.817Z,2840
2016-03-04T13:41:25.836Z,3012
2016-03-04T13:42:57.184Z,3296
2016-03-04T13:43:25.841Z,3344
2016-03-04T13:44:25.843Z,3388
2016-03-04T13:45:25.862Z,3380
2016-03-04T13:46:25.864Z,3384
2016-03-04T13:47:25.898Z,3284
2016-03-04T13:48:25.838Z,2988
2016-03-04T13:49:25.873Z,2708
2016-03-04T13:50:25.860Z,2552
2016-03-04T13:51:25.862Z,2500
2016-03-04T13:52:25.865Z,2368
2016-03-04T13:53:25.852Z,2160